createdAt,value
2018-03-26T00:00:06.319Z,99.90
2018-03-26T00:02:35.655Z,99.90
2018-03-26T00:05:04.802Z,99.90
2018-03-26T00:07:34.839Z,99.90
2018-03-26T00:10:04.228Z,99.90
2018-03-26T00:12:33.334Z,99.90
2018-03-26T00:15:03.174Z,99.90
2018-03-26T00:17:32.451Z,99.90
2018-03-26T00:20:01.448Z,99.90
2018-03-26T00:22:31.490Z,99.90
2018-03-26T00:25:00.560Z,99.90
2018-03-26T00:27:29.862Z,99.90
2018-03-26T00:29:58.862Z,99.90
2018-03-26T00:32:28.090Z,99.90
2018-03-26T00:34:57.243Z,99.90
2018-03-26T00:37:26.310Z,99.90
2018-03-26T00:39:56.267Z,99.90
2018-03-26T00:42:25.571Z,99.90
2018-03-26T00:44:55.574Z,99.90
2018-03-26T00:47:24.952Z,99.90
2018-03-26T00:49:54.086Z,99.90
2018-03-26T00:52:23.395Z,99.90
2018-03-26T00:54:53.087Z,99.90
2018-03-26T00:57:23.015Z,99.90
2018-03-26T00:59:52.115Z,99.90
2018-03-26T01:02:21.423Z,99.90
2018-03-26T01:04:51.394Z,99.90
2018-03-26T01:07:20.715Z,99.90
2018-03-26T01:09:49.834Z,99.90
2018-03-26T01:12:19.844Z,99.90
2018-03-26T01:14:49.011Z,99.90
2018-03-26T01:17:18.278Z,99.90
2018-03-26T01:19:47.351Z,99.90
2018-03-26T01:22:16.646Z,99.90
2018-03-26T01:24:45.651Z,99.90
2018-03-26T01:27:15.618Z,99.70
2018-03-26T01:29:44.758Z,99.70
2018-03-26T01:32:14.063Z,99.10
2018-03-26T01:34:43.162Z,98.60
2018-03-26T01:37:13.306Z,98.50
2018-03-26T01:39:42.298Z,98.40
2018-03-26T01:42:11.399Z,97.80
2018-03-26T01:44:40.391Z,96.80
2018-03-26T01:47:09.671Z,95.80
2018-03-26T01:49:39.642Z,94.20
2018-03-26T01:52:08.915Z,94.20
2018-03-26T01:54:38.008Z,93.60
2018-03-26T01:57:07.187Z,93.50
2018-03-26T01:59:36.786Z,91.90
2018-03-26T02:02:06.139Z,91.90
2018-03-26T02:04:36.007Z,91.60
2018-03-26T02:07:05.237Z,91.90
2018-03-26T02:09:34.137Z,91.10
2018-03-26T02:12:04.146Z,90.60
2018-03-26T02:14:33.243Z,90.50
2018-03-26T02:17:02.419Z,90.20
2018-03-26T02:19:31.411Z,90.30
2018-03-26T02:22:00.615Z,89.90
2018-03-26T02:24:29.639Z,89.90
2018-03-26T02:26:58.735Z,89.80
2018-03-26T02:29:27.727Z,89.30
2018-03-26T02:31:56.752Z,88.60
2018-03-26T02:34:25.712Z,88.50
2018-03-26T02:36:54.815Z,89.00
2018-03-26T02:39:23.967Z,89.70
2018-03-26T02:41:53.903Z,89.70
2018-03-26T02:44:23.019Z,89.80
2018-03-26T02:46:52.190Z,89.20
2018-03-26T02:49:21.290Z,89.80
2018-03-26T02:51:50.430Z,89.80
2018-03-26T02:54:19.415Z,89.60
2018-03-26T02:56:48.491Z,89.50
2018-03-26T02:59:17.508Z,90.40
2018-03-26T03:01:46.666Z,90.90
2018-03-26T03:04:15.651Z,90.10
2018-03-26T03:06:44.727Z,88.90
2018-03-26T03:09:14.502Z,90.30
2018-03-26T03:11:43.779Z,90.30
2018-03-26T03:14:13.779Z,88.70
2018-03-26T03:16:43.099Z,88.70
2018-03-26T03:19:12.187Z,88.70
2018-03-26T03:21:41.493Z,88.60
2018-03-26T03:24:10.596Z,87.90
2018-03-26T03:26:39.790Z,88.00
2018-03-26T03:29:08.719Z,87.00
2018-03-26T03:31:37.844Z,86.30
2018-03-26T03:34:06.675Z,85.50
2018-03-26T03:36:35.907Z,85.40
2018-03-26T03:39:05.211Z,85.10
2018-03-26T03:41:34.780Z,84.80
2018-03-26T03:44:03.907Z,84.80
2018-03-26T03:46:33.182Z,84.50
2018-03-26T03:49:02.174Z,84.60
2018-03-26T03:51:32.035Z,84.70
2018-03-26T03:54:01.246Z,84.60
2018-03-26T03:56:30.588Z,84.00
2018-03-26T03:58:59.690Z,83.80
2018-03-26T04:01:29.507Z,83.70
2018-03-26T04:03:59.318Z,83.80
2018-03-26T04:06:29.026Z,84.30
2018-03-26T04:08:57.947Z,84.30
2018-03-26T04:11:27.084Z,83.90
2018-03-26T04:13:56.425Z,83.80
2018-03-26T04:16:26.546Z,83.40
2018-03-26T04:18:55.571Z,83.30
2018-03-26T04:21:24.668Z,83.40
2018-03-26T04:23:53.662Z,83.50
2018-03-26T04:26:22.715Z,83.50
2018-03-26T04:28:51.806Z,83.10
2018-03-26T04:31:20.814Z,82.90
2018-03-26T04:33:49.794Z,82.90
2018-03-26T04:36:19.833Z,84.80
2018-03-26T04:38:49.934Z,85.00
2018-03-26T04:41:19.178Z,85.00
2018-03-26T04:43:48.376Z,83.80
2018-03-26T04:46:17.655Z,83.60
2018-03-26T04:48:47.627Z,82.60
2018-03-26T04:51:16.900Z,82.60
2018-03-26T04:53:45.995Z,80.70
2018-03-26T04:56:15.271Z,78.60
2018-03-26T04:58:44.267Z,75.90
2018-03-26T05:01:13.492Z,73.10
2018-03-26T05:03:42.383Z,71.60
2018-03-26T05:06:11.452Z,72.60
2018-03-26T05:08:41.363Z,72.50
2018-03-26T05:11:10.692Z,72.50
2018-03-26T05:13:39.763Z,72.60
2018-03-26T05:16:08.895Z,74.00
2018-03-26T05:18:37.892Z,73.60
2018-03-26T05:21:07.021Z,74.60
2018-03-26T05:23:37.514Z,74.20
2018-03-26T05:26:06.611Z,74.10
2018-03-26T05:28:35.607Z,72.40
2018-03-26T05:31:04.676Z,70.00
2018-03-26T05:33:34.619Z,67.20
2018-03-26T05:36:03.910Z,67.00
2018-03-26T05:38:32.982Z,66.30
2018-03-26T05:41:02.194Z,66.00
2018-03-26T05:43:31.178Z,66.90
2018-03-26T05:46:01.326Z,69.20
2018-03-26T05:48:30.425Z,69.20
2018-03-26T05:50:59.703Z,69.50
2018-03-26T05:53:29.675Z,70.20
2018-03-26T05:55:58.943Z,70.10
2018-03-26T05:58:28.015Z,70.40
2018-03-26T06:00:57.214Z,71.20
2018-03-26T06:03:27.227Z,71.60
2018-03-26T06:05:57.012Z,71.20
2018-03-26T06:08:25.970Z,71.10
2018-03-26T06:10:55.020Z,71.40
2018-03-26T06:13:23.958Z,71.20
2018-03-26T06:15:54.047Z,66.20
2018-03-26T06:18:23.247Z,66.10
2018-03-26T06:20:52.579Z,66.10
2018-03-26T06:23:21.731Z,63.90
2018-03-26T06:25:50.942Z,63.30
2018-03-26T06:28:20.027Z,62.10
2018-03-26T06:30:49.243Z,62.80
2018-03-26T06:33:18.603Z,64.10
2018-03-26T06:35:47.871Z,63.50
2018-03-26T06:38:22.343Z,63.80
2018-03-26T06:40:51.875Z,64.90
2018-03-26T06:43:21.003Z,64.40
2018-03-26T06:45:50.283Z,65.10
2018-03-26T06:48:19.506Z,64.70
2018-03-26T06:50:48.607Z,65.30
2018-03-26T06:53:18.220Z,64.60
2018-03-26T06:55:47.241Z,64.70
2018-03-26T06:58:16.330Z,63.60
2018-03-26T07:00:46.252Z,64.70
2018-03-26T07:03:16.311Z,63.70
2018-03-26T07:05:45.547Z,63.50
2018-03-26T07:08:14.535Z,63.70
2018-03-26T07:10:43.734Z,63.30
2018-03-26T07:13:12.695Z,62.50
2018-03-26T07:15:42.499Z,63.20
2018-03-26T07:18:11.707Z,63.00
2018-03-26T07:20:41.523Z,64.50
2018-03-26T07:23:10.403Z,64.30
2018-03-26T07:25:39.514Z,63.70
2018-03-26T07:28:08.439Z,62.50
2018-03-26T07:30:37.567Z,60.60
2018-03-26T07:33:06.483Z,61.50
2018-03-26T07:35:35.655Z,71.40
2018-03-26T07:38:04.574Z,77.10
2018-03-26T07:40:33.751Z,79.40
2018-03-26T07:43:02.663Z,81.10
2018-03-26T07:45:32.623Z,80.30
2018-03-26T07:48:01.696Z,80.30
2018-03-26T07:50:31.563Z,79.00
2018-03-26T07:53:00.767Z,79.80
2018-03-26T07:55:30.583Z,80.50
2018-03-26T07:57:59.655Z,80.40
2018-03-26T08:00:28.911Z,78.70
2018-03-26T08:02:57.798Z,77.20
2018-03-26T08:05:26.766Z,75.40
2018-03-26T08:07:55.731Z,74.40
2018-03-26T08:10:24.692Z,71.50
2018-03-26T08:12:53.620Z,71.30
2018-03-26T08:15:22.811Z,73.10
2018-03-26T08:17:51.834Z,75.30
2018-03-26T08:20:20.939Z,76.30
2018-03-26T08:22:49.903Z,76.30
2018-03-26T08:25:19.035Z,73.10
2018-03-26T08:27:47.986Z,72.40
2018-03-26T08:30:17.118Z,73.20
2018-03-26T08:32:46.083Z,71.40
2018-03-26T08:35:15.075Z,72.30
2018-03-26T08:37:44.074Z,73.20
2018-03-26T08:40:13.240Z,73.70
2018-03-26T08:42:43.771Z,73.40
2018-03-26T08:45:12.902Z,73.20
2018-03-26T08:47:41.911Z,72.30
2018-03-26T08:50:11.117Z,73.40
2018-03-26T08:52:40.363Z,72.00
2018-03-26T08:55:09.566Z,72.90
2018-03-26T08:57:40.322Z,72.70
2018-03-26T09:00:09.327Z,72.70
2018-03-26T09:02:38.523Z,71.20
2018-03-26T09:05:07.515Z,72.80
2018-03-26T09:07:36.483Z,70.90
2018-03-26T09:10:05.643Z,68.60
2018-03-26T09:12:34.603Z,66.50
2018-03-26T09:15:03.600Z,67.30
2018-03-26T09:17:32.702Z,65.00
2018-03-26T09:20:01.942Z,65.40
2018-03-26T09:22:30.911Z,65.00
2018-03-26T09:24:59.883Z,64.90
2018-03-26T09:27:28.843Z,65.00
2018-03-26T09:29:58.008Z,66.50
2018-03-26T09:32:27.883Z,72.00
2018-03-26T09:34:57.058Z,71.80
2018-03-26T09:37:26.651Z,75.10
2018-03-26T09:39:55.863Z,75.00
2018-03-26T09:42:24.747Z,75.00
2018-03-26T09:44:53.852Z,74.30
2018-03-26T09:47:23.691Z,70.40
2018-03-26T09:49:52.864Z,70.40
2018-03-26T09:52:21.863Z,71.10
2018-03-26T09:54:51.094Z,73.10
2018-03-26T09:57:20.346Z,71.80
2018-03-26T09:59:49.518Z,72.30
2018-03-26T10:02:18.587Z,73.40
2018-03-26T10:04:47.680Z,72.60
2018-03-26T10:07:16.530Z,74.10
2018-03-26T10:09:45.606Z,74.10
2018-03-26T10:12:14.528Z,75.40
2018-03-26T10:14:43.695Z,73.60
2018-03-26T10:17:12.659Z,73.60
2018-03-26T10:19:42.768Z,73.30
2018-03-26T10:22:11.862Z,73.20
2018-03-26T10:24:40.970Z,72.40
2018-03-26T10:27:10.062Z,71.10
2018-03-26T10:29:39.331Z,75.10
2018-03-26T10:32:09.208Z,74.00
2018-03-26T10:34:38.478Z,73.90
2018-03-26T10:37:07.577Z,74.60
2018-03-26T10:39:36.747Z,73.30
2018-03-26T10:42:05.844Z,74.10
2018-03-26T10:44:35.963Z,76.20
2018-03-26T10:47:05.055Z,76.20
2018-03-26T10:49:34.909Z,76.70
2018-03-26T10:52:03.895Z,76.70
2018-03-26T10:54:32.995Z,75.80
2018-03-26T10:57:02.059Z,74.20
2018-03-26T10:59:31.327Z,75.80
2018-03-26T11:02:00.239Z,77.20
2018-03-26T11:04:29.347Z,78.00
2018-03-26T11:06:59.190Z,75.70
2018-03-26T11:09:28.467Z,76.50
2018-03-26T11:11:57.564Z,72.20
2018-03-26T11:14:27.609Z,71.00
2018-03-26T11:16:56.602Z,71.00
2018-03-26T11:19:25.880Z,70.10
2018-03-26T11:21:55.079Z,71.30
2018-03-26T11:24:24.239Z,71.50
2018-03-26T11:26:54.090Z,69.10
2018-03-26T11:29:23.403Z,69.10
2018-03-26T11:31:52.491Z,67.10
2018-03-26T11:34:21.622Z,66.60
2018-03-26T11:36:50.683Z,66.70
2018-03-26T11:39:19.712Z,69.00
2018-03-26T11:41:48.749Z,68.50
2018-03-26T11:44:18.071Z,69.50
2018-03-26T11:46:47.055Z,68.30
2018-03-26T11:49:16.991Z,66.60
2018-03-26T11:51:46.083Z,66.60
2018-03-26T11:54:15.107Z,66.40
2018-03-26T11:56:44.171Z,64.70
2018-03-26T11:59:13.643Z,64.40
2018-03-26T12:01:42.498Z,66.10
2018-03-26T12:04:11.626Z,70.10
2018-03-26T12:06:41.479Z,71.20
2018-03-26T12:09:11.291Z,69.20
2018-03-26T12:11:41.135Z,64.30
2018-03-26T12:14:10.411Z,64.30
2018-03-26T12:16:39.507Z,65.20
2018-03-26T12:19:09.551Z,66.00
2018-03-26T12:21:38.515Z,66.00
2018-03-26T12:24:19.377Z,65.40
2018-03-26T12:26:48.752Z,67.40
2018-03-26T12:29:30.178Z,68.50
2018-03-26T12:31:59.274Z,68.40
2018-03-26T12:34:40.954Z,72.20
2018-03-26T12:37:10.847Z,71.90
2018-03-26T12:39:40.291Z,71.80
2018-03-26T12:42:10.367Z,71.40
2018-03-26T12:44:51.167Z,72.00
2018-03-26T12:47:20.058Z,74.20
2018-03-26T12:49:49.171Z,76.60
2018-03-26T12:52:29.823Z,76.90
2018-03-26T12:55:00.019Z,76.20
2018-03-26T12:57:41.430Z,76.20
2018-03-26T13:00:11.321Z,76.60
2018-03-26T13:02:42.296Z,74.60
2018-03-26T13:05:11.639Z,74.60
2018-03-26T13:07:40.727Z,74.90
2018-03-26T13:10:10.003Z,76.10
2018-03-26T13:12:39.134Z,75.50
2018-03-26T13:15:08.331Z,73.80
2018-03-26T13:17:38.211Z,77.80
2018-03-26T13:20:07.515Z,77.70
2018-03-26T13:22:36.511Z,79.40
2018-03-26T13:25:05.607Z,77.10
2018-03-26T13:27:35.584Z,77.10
2018-03-26T13:30:05.234Z,77.10
2018-03-26T13:32:35.207Z,74.40
2018-03-26T13:35:04.488Z,74.30
2018-03-26T13:37:33.647Z,75.00
2018-03-26T13:40:02.852Z,75.40
2018-03-26T13:42:31.946Z,76.50
2018-03-26T13:45:02.503Z,76.70
2018-03-26T13:47:31.598Z,77.30
2018-03-26T13:50:00.881Z,76.30
2018-03-26T13:52:29.975Z,77.40
2018-03-26T13:54:59.203Z,79.00
2018-03-26T13:57:28.095Z,81.00
2018-03-26T13:59:57.295Z,81.70
2018-03-26T14:02:27.388Z,80.40
2018-03-26T14:04:56.683Z,80.40
2018-03-26T14:07:25.706Z,79.90
2018-03-26T14:10:06.309Z,79.30
2018-03-26T14:12:46.692Z,78.60
2018-03-26T14:15:28.077Z,79.60
2018-03-26T14:18:02.722Z,79.70
2018-03-26T14:20:32.123Z,79.70
2018-03-26T14:23:01.231Z,78.80
2018-03-26T14:25:30.222Z,80.00
2018-03-26T14:27:59.311Z,79.00
2018-03-26T14:30:29.355Z,77.90
2018-03-26T14:32:58.451Z,77.90
2018-03-26T14:35:42.676Z,77.70
2018-03-26T14:38:11.798Z,78.60
2018-03-26T14:40:40.871Z,78.20
2018-03-26T14:43:09.990Z,79.90
2018-03-26T14:45:39.309Z,82.60
2018-03-26T14:48:08.298Z,84.90
2018-03-26T14:50:37.427Z,86.60
2018-03-26T14:53:06.386Z,88.20
2018-03-26T14:55:35.489Z,88.90
2018-03-26T14:58:04.480Z,89.10
2018-03-26T15:00:33.607Z,90.00
2018-03-26T15:03:02.674Z,90.30
2018-03-26T15:05:31.803Z,90.50
2018-03-26T15:08:00.763Z,91.00
2018-03-26T15:10:29.962Z,91.60
2018-03-26T15:12:58.964Z,92.30
2018-03-26T15:15:28.087Z,92.90
2018-03-26T15:17:57.930Z,93.70
2018-03-26T15:20:27.261Z,93.70
2018-03-26T15:22:56.341Z,93.80
2018-03-26T15:25:25.639Z,93.90
2018-03-26T15:27:55.551Z,94.50
2018-03-26T15:30:25.299Z,94.50
2018-03-26T15:32:54.295Z,94.50
2018-03-26T15:35:23.492Z,95.00
2018-03-26T15:37:52.352Z,95.00
2018-03-26T15:40:21.478Z,95.20
2018-03-26T15:42:50.538Z,94.80
2018-03-26T15:45:19.703Z,94.50
2018-03-26T15:47:48.670Z,93.80
2018-03-26T15:50:18.683Z,94.00
2018-03-26T15:52:47.756Z,94.00
2018-03-26T15:55:16.952Z,94.20
2018-03-26T15:57:45.974Z,94.50
2018-03-26T16:00:15.175Z,95.20
2018-03-26T16:02:49.675Z,95.70
2018-03-26T16:05:19.077Z,95.70
2018-03-26T16:07:48.171Z,95.90
2018-03-26T16:10:17.371Z,96.50
2018-03-26T16:12:47.342Z,97.20
2018-03-26T16:15:16.610Z,97.20
2018-03-26T16:17:45.683Z,97.60
2018-03-26T16:20:15.864Z,97.90
2018-03-26T16:22:45.109Z,97.90
2018-03-26T16:25:14.915Z,97.60
2018-03-26T16:27:44.759Z,97.80
2018-03-26T16:30:14.035Z,97.80
2018-03-26T16:32:43.132Z,97.80
2018-03-26T16:35:13.175Z,98.90
2018-03-26T16:37:42.446Z,98.50
2018-03-26T16:40:11.754Z,99.30
2018-03-26T16:42:45.755Z,99.90
2018-03-26T16:45:14.967Z,99.90
2018-03-26T16:47:44.353Z,99.90
2018-03-26T16:50:13.843Z,99.90
2018-03-26T16:52:42.716Z,99.90
2018-03-26T16:55:12.543Z,99.90
2018-03-26T16:57:41.562Z,99.90
2018-03-26T17:00:11.596Z,99.90
2018-03-26T17:02:40.691Z,99.90
2018-03-26T17:05:09.923Z,99.90
2018-03-26T17:07:39.079Z,99.90
2018-03-26T17:10:09.111Z,99.90
2018-03-26T17:12:39.082Z,99.90
2018-03-26T17:15:08.354Z,99.90
2018-03-26T17:17:37.449Z,99.90
2018-03-26T17:20:06.723Z,99.90
2018-03-26T17:22:35.823Z,99.90
2018-03-26T17:25:05.939Z,99.90
2018-03-26T17:27:35.166Z,99.90
2018-03-26T17:30:04.428Z,99.90
2018-03-26T17:32:34.563Z,99.90
2018-03-26T17:35:03.732Z,99.90
2018-03-26T17:37:32.855Z,99.90
2018-03-26T17:40:02.206Z,99.90
2018-03-26T17:42:32.244Z,99.90
2018-03-26T17:45:02.063Z,99.90
2018-03-26T17:47:31.299Z,99.90
2018-03-26T17:50:00.583Z,99.90
2018-03-26T17:52:35.360Z,99.90
2018-03-26T17:55:05.556Z,99.90
2018-03-26T17:57:34.543Z,99.90
2018-03-26T18:00:03.881Z,99.90
2018-03-26T18:02:33.860Z,99.90
2018-03-26T18:05:03.839Z,99.90
2018-03-26T18:07:33.067Z,99.90
2018-03-26T18:10:02.611Z,99.90
2018-03-26T18:12:31.688Z,99.90
2018-03-26T18:15:01.907Z,99.90
2018-03-26T18:17:31.035Z,99.90
2018-03-26T18:20:00.317Z,99.90
2018-03-26T18:22:29.407Z,99.90
2018-03-26T18:24:58.534Z,99.90
2018-03-26T18:27:27.599Z,99.90
2018-03-26T18:29:57.643Z,99.90
2018-03-26T18:32:26.711Z,99.90
2018-03-26T18:34:55.947Z,99.90
2018-03-26T18:37:25.990Z,99.90
2018-03-26T18:39:55.982Z,99.90
2018-03-26T18:42:24.931Z,99.90
2018-03-26T18:44:54.966Z,99.90
2018-03-26T18:47:24.066Z,99.90
2018-03-26T18:49:53.259Z,99.90
2018-03-26T18:52:23.171Z,99.90
2018-03-26T18:54:53.055Z,99.90
2018-03-26T18:57:22.104Z,99.90
2018-03-26T18:59:51.182Z,99.90
2018-03-26T19:02:20.543Z,99.90
2018-03-26T19:04:50.463Z,99.90
2018-03-26T19:07:19.615Z,99.90
2018-03-26T19:09:48.866Z,99.90
2018-03-26T19:12:18.159Z,99.90
2018-03-26T19:14:48.084Z,99.90
2018-03-26T19:17:17.102Z,99.90
2018-03-26T19:19:47.243Z,99.90
2018-03-26T19:22:16.331Z,99.90
2018-03-26T19:24:45.496Z,99.90
2018-03-26T19:27:14.455Z,99.90
2018-03-26T19:29:43.583Z,99.90
2018-03-26T19:32:12.505Z,99.90
2018-03-26T19:34:41.678Z,99.90
2018-03-26T19:37:10.595Z,99.90
2018-03-26T19:39:39.703Z,99.90
2018-03-26T19:42:09.443Z,99.90
2018-03-26T19:44:38.719Z,99.90
2018-03-26T19:47:07.823Z,99.90
2018-03-26T19:49:37.015Z,99.90
2018-03-26T19:52:06.987Z,99.90
2018-03-26T19:54:36.154Z,99.90
2018-03-26T19:57:05.223Z,99.90
2018-03-26T19:59:34.894Z,99.90
2018-03-26T20:02:04.647Z,99.90
2018-03-26T20:04:33.950Z,99.90
2018-03-26T20:07:03.051Z,99.90
2018-03-26T20:09:32.275Z,99.90
2018-03-26T20:12:02.044Z,99.90
2018-03-26T20:14:31.458Z,99.90
2018-03-26T20:17:01.264Z,99.90
2018-03-26T20:19:31.303Z,99.90
2018-03-26T20:22:00.214Z,99.90
2018-03-26T20:24:30.923Z,99.90
2018-03-26T20:27:00.899Z,99.90
2018-03-26T20:29:30.166Z,99.90
2018-03-26T20:32:00.099Z,99.90
2018-03-26T20:34:30.180Z,99.90
2018-03-26T20:36:59.275Z,99.90
2018-03-26T20:39:28.539Z,99.90
2018-03-26T20:41:57.459Z,99.90
2018-03-26T20:44:26.728Z,99.90
2018-03-26T20:46:55.955Z,99.90
2018-03-26T20:49:25.819Z,99.90
2018-03-26T20:51:54.880Z,99.90
2018-03-26T20:54:24.999Z,99.90
2018-03-26T20:56:54.095Z,99.90
2018-03-26T20:59:24.280Z,99.90
2018-03-26T21:01:53.420Z,99.90
2018-03-26T21:04:22.723Z,99.90
2018-03-26T21:06:52.724Z,99.90
2018-03-26T21:09:22.688Z,99.90
2018-03-26T21:11:51.683Z,99.90
2018-03-26T21:14:20.951Z,99.90
2018-03-26T21:16:49.935Z,99.90
2018-03-26T21:19:19.967Z,99.90
2018-03-26T21:21:49.943Z,99.90
2018-03-26T21:24:19.179Z,99.90
2018-03-26T21:26:48.307Z,99.90
2018-03-26T21:29:17.584Z,99.90
2018-03-26T21:31:46.675Z,99.90
2018-03-26T21:34:16.795Z,99.90
2018-03-26T21:36:46.603Z,99.90
2018-03-26T21:39:16.630Z,99.90
2018-03-26T21:41:46.609Z,99.90
2018-03-26T21:44:15.875Z,99.90
2018-03-26T21:46:44.972Z,99.90
2018-03-26T21:49:14.247Z,99.90
2018-03-26T21:51:44.223Z,99.90
2018-03-26T21:54:13.491Z,99.90
2018-03-26T21:56:42.563Z,99.90
2018-03-26T21:59:12.744Z,99.90
2018-03-26T22:01:41.885Z,99.90
2018-03-26T22:04:11.183Z,99.90
2018-03-26T22:06:40.284Z,99.90
2018-03-26T22:09:09.638Z,99.90
2018-03-26T22:11:39.627Z,99.90
2018-03-26T22:14:09.011Z,99.90
2018-03-26T22:16:38.310Z,99.90
2018-03-26T22:19:08.351Z,99.90
2018-03-26T22:21:37.447Z,99.90
2018-03-26T22:24:06.735Z,99.90
2018-03-26T22:26:35.823Z,99.90
2018-03-26T22:29:05.052Z,99.90
2018-03-26T22:31:35.039Z,99.90
2018-03-26T22:34:04.343Z,99.90
2018-03-26T22:36:34.343Z,99.90
2018-03-26T22:39:04.548Z,99.90
2018-03-26T22:41:34.498Z,99.90
2018-03-26T22:44:04.683Z,99.90
2018-03-26T22:46:33.815Z,99.90
2018-03-26T22:49:03.123Z,99.90
2018-03-26T22:51:32.218Z,99.90
2018-03-26T22:54:01.450Z,99.90
2018-03-26T22:56:31.327Z,99.90
2018-03-26T22:59:00.659Z,99.90
2018-03-26T23:01:29.664Z,99.90
2018-03-26T23:03:58.954Z,99.90
2018-03-26T23:06:28.135Z,99.90
2018-03-26T23:08:58.246Z,99.90
2018-03-26T23:11:27.343Z,99.90
2018-03-26T23:13:56.650Z,99.90
2018-03-26T23:16:26.622Z,99.90
2018-03-26T23:18:56.074Z,99.90
2018-03-26T23:21:26.074Z,99.90
2018-03-26T23:23:56.035Z,99.90
2018-03-26T23:26:25.038Z,99.90
2018-03-26T23:28:54.162Z,99.90
2018-03-26T23:31:23.018Z,99.90
2018-03-26T23:33:52.157Z,99.90
2018-03-26T23:36:21.197Z,99.90
2018-03-26T23:38:50.446Z,99.90
2018-03-26T23:41:19.362Z,99.90
2018-03-26T23:43:48.488Z,99.90
2018-03-26T23:46:17.459Z,99.90
2018-03-26T23:48:46.558Z,99.90
2018-03-26T23:51:16.408Z,99.90
2018-03-26T23:53:45.683Z,99.90
2018-03-26T23:56:14.574Z,99.90
2018-03-26T23:58:44.691Z,99.90
